sensor_id;sensor_type;location;lat;lon;timestamp;P1;durP1;ratioP1;P2;durP2;ratioP2
44143;SDS011;43510;51.920;4.492;2022-09-12T00:01:51;11.07;;;6.03;;
44143;SDS011;43510;51.920;4.492;2022-09-12T00:04:16;10.85;;;6.45;;
44143;SDS011;43510;51.920;4.492;2022-09-12T00:06:42;9.77;;;5.68;;
44143;SDS011;43510;51.920;4.492;2022-09-12T00:09:09;13.27;;;5.97;;
44143;SDS011;43510;51.920;4.492;2022-09-12T00:11:38;13.80;;;6.43;;
44143;SDS011;43510;51.920;4.492;2022-09-12T00:14:07;11.23;;;6.35;;
44143;SDS011;43510;51.920;4.492;2022-09-12T00:16:34;10.55;;;5.95;;
44143;SDS011;43510;51.920;4.492;2022-09-12T00:19:00;12.10;;;6.28;;
44143;SDS011;43510;51.920;4.492;2022-09-12T00:21:28;11.27;;;5.78;;
44143;SDS011;43510;51.920;4.492;2022-09-12T00:23:54;10.50;;;5.88;;
44143;SDS011;43510;51.920;4.492;2022-09-12T00:26:20;10.00;;;5.97;;
44143;SDS011;43510;51.920;4.492;2022-09-12T00:28:49;12.40;;;6.75;;
44143;SDS011;43510;51.920;4.492;2022-09-12T00:31:16;12.13;;;6.40;;
44143;SDS011;43510;51.920;4.492;2022-09-12T00:33:43;11.80;;;6.32;;
44143;SDS011;43510;51.920;4.492;2022-09-12T00:36:10;11.32;;;6.50;;
44143;SDS011;43510;51.920;4.492;2022-09-12T00:38:39;13.35;;;6.63;;
44143;SDS011;43510;51.920;4.492;2022-09-12T00:41:06;13.98;;;7.07;;
44143;SDS011;43510;51.920;4.492;2022-09-12T00:43:39;11.95;;;6.70;;
44143;SDS011;43510;51.920;4.492;2022-09-12T00:48:41;11.75;;;6.97;;
44143;SDS011;43510;51.920;4.492;2022-09-12T00:51:11;11.67;;;7.27;;
44143;SDS011;43510;51.920;4.492;2022-09-12T00:53:38;12.68;;;7.10;;
44143;SDS011;43510;51.920;4.492;2022-09-12T00:56:06;13.07;;;6.50;;
44143;SDS011;43510;51.920;4.492;2022-09-12T00:58:35;13.63;;;6.78;;
44143;SDS011;43510;51.920;4.492;2022-09-12T01:01:04;13.48;;;7.57;;
44143;SDS011;43510;51.920;4.492;2022-09-12T01:03:30;11.07;;;6.82;;
44143;SDS011;43510;51.920;4.492;2022-09-12T01:06:01;11.40;;;6.50;;
44143;SDS011;43510;51.920;4.492;2022-09-12T01:08:32;10.90;;;6.53;;
44143;SDS011;43510;51.920;4.492;2022-09-12T01:11:01;13.00;;;7.10;;
44143;SDS011;43510;51.920;4.492;2022-09-12T01:13:27;11.85;;;6.40;;
44143;SDS011;43510;51.920;4.492;2022-09-12T01:15:53;15.60;;;7.07;;
44143;SDS011;43510;51.920;4.492;2022-09-12T01:21:09;11.07;;;6.13;;
44143;SDS011;43510;51.920;4.492;2022-09-12T01:35:17;13.25;;;7.00;;
44143;SDS011;43510;51.920;4.492;2022-09-12T01:40:39;14.43;;;8.25;;
44143;SDS011;43510;51.920;4.492;2022-09-12T01:43:16;13.45;;;7.47;;
44143;SDS011;43510;51.920;4.492;2022-09-12T01:45:55;13.77;;;7.85;;
44143;SDS011;43510;51.920;4.492;2022-09-12T01:48:55;16.25;;;8.02;;
44143;SDS011;43510;51.920;4.492;2022-09-12T01:51:37;14.65;;;7.78;;
44143;SDS011;43510;51.920;4.492;2022-09-12T01:54:18;17.90;;;7.88;;
44143;SDS011;43510;51.920;4.492;2022-09-12T01:56:50;14.52;;;7.70;;
44143;SDS011;43510;51.920;4.492;2022-09-12T01:59:21;15.25;;;8.27;;
44143;SDS011;43510;51.920;4.492;2022-09-12T02:02:04;15.63;;;8.32;;
44143;SDS011;43510;51.920;4.492;2022-09-12T02:04:34;14.82;;;8.40;;
44143;SDS011;43510;51.920;4.492;2022-09-12T02:07:11;14.25;;;8.30;;
44143;SDS011;43510;51.920;4.492;2022-09-12T02:09:53;14.65;;;8.43;;
44143;SDS011;43510;51.920;4.492;2022-09-12T02:12:26;15.73;;;8.63;;
44143;SDS011;43510;51.920;4.492;2022-09-12T02:15:01;19.33;;;9.50;;
44143;SDS011;43510;51.920;4.492;2022-09-12T02:17:31;16.92;;;8.93;;
44143;SDS011;43510;51.920;4.492;2022-09-12T02:20:11;16.63;;;9.20;;
44143;SDS011;43510;51.920;4.492;2022-09-12T02:22:42;19.77;;;8.63;;
44143;SDS011;43510;51.920;4.492;2022-09-12T02:25:10;14.90;;;7.82;;
44143;SDS011;43510;51.920;4.492;2022-09-12T02:27:47;16.48;;;8.82;;
44143;SDS011;43510;51.920;4.492;2022-09-12T02:30:16;16.63;;;9.05;;
44143;SDS011;43510;51.920;4.492;2022-09-12T02:32:48;16.45;;;9.23;;
44143;SDS011;43510;51.920;4.492;2022-09-12T02:38:50;15.10;;;8.90;;
44143;SDS011;43510;51.920;4.492;2022-09-12T02:41:06;19.17;;;9.57;;
44143;SDS011;43510;51.920;4.492;2022-09-12T02:43:31;21.23;;;10.52;;
44143;SDS011;43510;51.920;4.492;2022-09-12T02:45:57;14.98;;;10.10;;
44143;SDS011;43510;51.920;4.492;2022-09-12T02:48:30;19.15;;;9.93;;
44143;SDS011;43510;51.920;4.492;2022-09-12T02:50:59;18.20;;;9.70;;
44143;SDS011;43510;51.920;4.492;2022-09-12T02:53:29;14.82;;;9.20;;
44143;SDS011;43510;51.920;4.492;2022-09-12T02:55:55;19.63;;;9.50;;
44143;SDS011;43510;51.920;4.492;2022-09-12T02:58:35;16.08;;;9.15;;
44143;SDS011;43510;51.920;4.492;2022-09-12T03:05:58;20.23;;;9.50;;
44143;SDS011;43510;51.920;4.492;2022-09-12T03:08:34;18.15;;;10.30;;
44143;SDS011;43510;51.920;4.492;2022-09-12T03:14:11;19.13;;;9.60;;
44143;SDS011;43510;51.920;4.492;2022-09-12T03:22:57;17.08;;;8.88;;
44143;SDS011;43510;51.920;4.492;2022-09-12T03:26:55;17.00;;;9.15;;
44143;SDS011;43510;51.920;4.492;2022-09-12T03:28:56;17.08;;;8.65;;
44143;SDS011;43510;51.920;4.492;2022-09-12T03:31:26;17.75;;;9.52;;
44143;SDS011;43510;51.920;4.492;2022-09-12T03:33:51;21.13;;;9.25;;
44143;SDS011;43510;51.920;4.492;2022-09-12T03:36:24;15.90;;;9.10;;
44143;SDS011;43510;51.920;4.492;2022-09-12T03:38:52;17.67;;;9.32;;
44143;SDS011;43510;51.920;4.492;2022-09-12T03:41:17;15.20;;;8.85;;
44143;SDS011;43510;51.920;4.492;2022-09-12T03:43:43;15.02;;;8.82;;
44143;SDS011;43510;51.920;4.492;2022-09-12T03:46:10;18.85;;;9.70;;
44143;SDS011;43510;51.920;4.492;2022-09-12T03:48:35;21.58;;;10.05;;
44143;SDS011;43510;51.920;4.492;2022-09-12T03:51:02;16.92;;;9.02;;
44143;SDS011;43510;51.920;4.492;2022-09-12T03:53:29;17.13;;;9.43;;
44143;SDS011;43510;51.920;4.492;2022-09-12T03:55:55;18.23;;;9.30;;
44143;SDS011;43510;51.920;4.492;2022-09-12T03:58:21;17.00;;;9.75;;
44143;SDS011;43510;51.920;4.492;2022-09-12T04:00:47;15.63;;;8.80;;
44143;SDS011;43510;51.920;4.492;2022-09-12T04:03:12;19.00;;;10.15;;
44143;SDS011;43510;51.920;4.492;2022-09-12T04:05:37;17.45;;;9.93;;
44143;SDS011;43510;51.920;4.492;2022-09-12T04:08:03;17.52;;;9.70;;
44143;SDS011;43510;51.920;4.492;2022-09-12T04:10:31;16.88;;;9.77;;
44143;SDS011;43510;51.920;4.492;2022-09-12T04:12:58;18.95;;;10.07;;
44143;SDS011;43510;51.920;4.492;2022-09-12T04:15:23;17.75;;;9.82;;
44143;SDS011;43510;51.920;4.492;2022-09-12T04:17:49;18.35;;;9.77;;
44143;SDS011;43510;51.920;4.492;2022-09-12T04:20:14;16.85;;;10.45;;
44143;SDS011;43510;51.920;4.492;2022-09-12T04:22:39;19.15;;;10.60;;
44143;SDS011;43510;51.920;4.492;2022-09-12T04:25:05;18.88;;;10.60;;
44143;SDS011;43510;51.920;4.492;2022-09-12T04:27:31;18.42;;;10.60;;
44143;SDS011;43510;51.920;4.492;2022-09-12T04:29:56;15.60;;;9.80;;
44143;SDS011;43510;51.920;4.492;2022-09-12T04:32:23;17.40;;;10.10;;
44143;SDS011;43510;51.920;4.492;2022-09-12T04:34:48;22.95;;;9.82;;
44143;SDS011;43510;51.920;4.492;2022-09-12T04:37:14;16.23;;;9.88;;
44143;SDS011;43510;51.920;4.492;2022-09-12T04:39:40;18.13;;;10.07;;
44143;SDS011;43510;51.920;4.492;2022-09-12T04:42:12;21.65;;;10.48;;
44143;SDS011;43510;51.920;4.492;2022-09-12T04:44:37;20.65;;;11.10;;
44143;SDS011;43510;51.920;4.492;2022-09-12T04:47:02;20.20;;;11.32;;
44143;SDS011;43510;51.920;4.492;2022-09-12T04:49:28;19.42;;;10.45;;
44143;SDS011;43510;51.920;4.492;2022-09-12T04:51:53;17.73;;;10.10;;
44143;SDS011;43510;51.920;4.492;2022-09-12T04:54:30;20.83;;;11.02;;
44143;SDS011;43510;51.920;4.492;2022-09-12T04:56:56;22.27;;;11.55;;
44143;SDS011;43510;51.920;4.492;2022-09-12T04:59:21;21.80;;;11.35;;
44143;SDS011;43510;51.920;4.492;2022-09-12T05:01:47;23.50;;;11.23;;
44143;SDS011;43510;51.920;4.492;2022-09-12T05:04:13;23.10;;;11.05;;
44143;SDS011;43510;51.920;4.492;2022-09-12T05:06:39;23.90;;;11.65;;
44143;SDS011;43510;51.920;4.492;2022-09-12T05:09:06;21.48;;;12.00;;
44143;SDS011;43510;51.920;4.492;2022-09-12T05:11:36;23.88;;;12.07;;
44143;SDS011;43510;51.920;4.492;2022-09-12T05:14:02;23.58;;;12.35;;
44143;SDS011;43510;51.920;4.492;2022-09-12T05:16:28;26.33;;;12.68;;
44143;SDS011;43510;51.920;4.492;2022-09-12T05:18:55;24.48;;;12.48;;
44143;SDS011;43510;51.920;4.492;2022-09-12T05:21:24;23.08;;;12.43;;
44143;SDS011;43510;51.920;4.492;2022-09-12T05:23:52;23.98;;;12.60;;
44143;SDS011;43510;51.920;4.492;2022-09-12T05:26:18;22.02;;;12.05;;
44143;SDS011;43510;51.920;4.492;2022-09-12T05:28:45;19.70;;;12.40;;
44143;SDS011;43510;51.920;4.492;2022-09-12T05:31:16;24.20;;;13.13;;
44143;SDS011;43510;51.920;4.492;2022-09-12T05:33:46;24.42;;;13.63;;
44143;SDS011;43510;51.920;4.492;2022-09-12T05:36:23;22.33;;;12.32;;
44143;SDS011;43510;51.920;4.492;2022-09-12T05:38:50;23.27;;;11.68;;
44143;SDS011;43510;51.920;4.492;2022-09-12T05:41:17;20.98;;;11.80;;
44143;SDS011;43510;51.920;4.492;2022-09-12T05:43:45;25.08;;;13.02;;
44143;SDS011;43510;51.920;4.492;2022-09-12T05:46:15;24.05;;;12.18;;
44143;SDS011;43510;51.920;4.492;2022-09-12T05:48:42;23.50;;;12.45;;
44143;SDS011;43510;51.920;4.492;2022-09-12T05:51:13;20.88;;;11.55;;
44143;SDS011;43510;51.920;4.492;2022-09-12T05:53:50;23.75;;;11.98;;
44143;SDS011;43510;51.920;4.492;2022-09-12T05:56:19;26.65;;;13.35;;
44143;SDS011;43510;51.920;4.492;2022-09-12T05:58:53;22.63;;;12.65;;
44143;SDS011;43510;51.920;4.492;2022-09-12T06:01:20;29.02;;;13.32;;
44143;SDS011;43510;51.920;4.492;2022-09-12T06:03:46;22.88;;;13.43;;
44143;SDS011;43510;51.920;4.492;2022-09-12T06:06:14;25.20;;;13.80;;
44143;SDS011;43510;51.920;4.492;2022-09-12T06:08:41;26.15;;;13.60;;
44143;SDS011;43510;51.920;4.492;2022-09-12T06:11:08;23.42;;;14.57;;
44143;SDS011;43510;51.920;4.492;2022-09-12T06:13:36;25.55;;;13.43;;
44143;SDS011;43510;51.920;4.492;2022-09-12T06:16:10;26.13;;;13.82;;
44143;SDS011;43510;51.920;4.492;2022-09-12T06:18:41;23.27;;;13.38;;
44143;SDS011;43510;51.920;4.492;2022-09-12T06:21:11;24.25;;;12.40;;
44143;SDS011;43510;51.920;4.492;2022-09-12T06:23:42;25.95;;;13.13;;
44143;SDS011;43510;51.920;4.492;2022-09-12T06:26:09;26.77;;;13.80;;
44143;SDS011;43510;51.920;4.492;2022-09-12T06:28:36;25.50;;;13.32;;
44143;SDS011;43510;51.920;4.492;2022-09-12T06:31:13;25.92;;;14.45;;
44143;SDS011;43510;51.920;4.492;2022-09-12T06:33:44;25.27;;;13.10;;
44143;SDS011;43510;51.920;4.492;2022-09-12T06:36:12;26.40;;;12.10;;
44143;SDS011;43510;51.920;4.492;2022-09-12T06:38:40;26.27;;;11.75;;
44143;SDS011;43510;51.920;4.492;2022-09-12T06:41:09;21.45;;;11.77;;
44143;SDS011;43510;51.920;4.492;2022-09-12T06:43:36;22.70;;;11.70;;
44143;SDS011;43510;51.920;4.492;2022-09-12T06:46:02;22.75;;;11.90;;
44143;SDS011;43510;51.920;4.492;2022-09-12T06:48:28;18.27;;;11.32;;
44143;SDS011;43510;51.920;4.492;2022-09-12T06:51:01;25.02;;;12.30;;
44143;SDS011;43510;51.920;4.492;2022-09-12T06:53:29;22.63;;;11.82;;
44143;SDS011;43510;51.920;4.492;2022-09-12T06:55:58;22.25;;;11.50;;
44143;SDS011;43510;51.920;4.492;2022-09-12T06:58:25;20.63;;;11.23;;
44143;SDS011;43510;51.920;4.492;2022-09-12T07:00:59;24.10;;;12.85;;
44143;SDS011;43510;51.920;4.492;2022-09-12T07:03:27;23.58;;;11.02;;
44143;SDS011;43510;51.920;4.492;2022-09-12T07:05:52;18.90;;;10.35;;
44143;SDS011;43510;51.920;4.492;2022-09-12T07:08:18;25.50;;;11.40;;
44143;SDS011;43510;51.920;4.492;2022-09-12T07:10:43;21.63;;;12.20;;
44143;SDS011;43510;51.920;4.492;2022-09-12T07:13:09;19.20;;;11.27;;
44143;SDS011;43510;51.920;4.492;2022-09-12T07:15:34;24.08;;;11.88;;
44143;SDS011;43510;51.920;4.492;2022-09-12T07:18:00;22.60;;;11.50;;
44143;SDS011;43510;51.920;4.492;2022-09-12T07:20:26;20.00;;;10.65;;
44143;SDS011;43510;51.920;4.492;2022-09-12T07:22:51;20.17;;;10.82;;
44143;SDS011;43510;51.920;4.492;2022-09-12T07:25:17;21.70;;;11.60;;
44143;SDS011;43510;51.920;4.492;2022-09-12T07:27:42;24.80;;;11.68;;
44143;SDS011;43510;51.920;4.492;2022-09-12T07:30:07;20.33;;;11.27;;
44143;SDS011;43510;51.920;4.492;2022-09-12T07:32:33;20.08;;;10.73;;
44143;SDS011;43510;51.920;4.492;2022-09-12T07:34:58;22.30;;;10.90;;
44143;SDS011;43510;51.920;4.492;2022-09-12T07:37:24;17.45;;;10.25;;
44143;SDS011;43510;51.920;4.492;2022-09-12T07:39:49;19.25;;;10.88;;
44143;SDS011;43510;51.920;4.492;2022-09-12T07:42:15;19.23;;;9.73;;
44143;SDS011;43510;51.920;4.492;2022-09-12T07:44:40;20.63;;;10.98;;
44143;SDS011;43510;51.920;4.492;2022-09-12T07:47:06;21.20;;;10.57;;
44143;SDS011;43510;51.920;4.492;2022-09-12T07:49:31;26.50;;;12.20;;
44143;SDS011;43510;51.920;4.492;2022-09-12T07:51:57;21.38;;;11.77;;
44143;SDS011;43510;51.920;4.492;2022-09-12T07:54:22;22.67;;;11.10;;
44143;SDS011;43510;51.920;4.492;2022-09-12T07:56:48;18.42;;;10.32;;
44143;SDS011;43510;51.920;4.492;2022-09-12T07:59:13;18.80;;;10.57;;
44143;SDS011;43510;51.920;4.492;2022-09-12T08:01:38;21.73;;;11.15;;
44143;SDS011;43510;51.920;4.492;2022-09-12T08:04:05;18.98;;;9.38;;
44143;SDS011;43510;51.920;4.492;2022-09-12T08:06:30;19.73;;;9.82;;
44143;SDS011;43510;51.920;4.492;2022-09-12T08:08:59;19.30;;;9.25;;
44143;SDS011;43510;51.920;4.492;2022-09-12T08:11:26;19.92;;;9.35;;
44143;SDS011;43510;51.920;4.492;2022-09-12T08:13:54;15.55;;;8.88;;
44143;SDS011;43510;51.920;4.492;2022-09-12T08:16:22;15.27;;;8.15;;
44143;SDS011;43510;51.920;4.492;2022-09-12T08:18:50;13.00;;;7.45;;
44143;SDS011;43510;51.920;4.492;2022-09-12T08:23:46;14.18;;;6.95;;
44143;SDS011;43510;51.920;4.492;2022-09-12T08:26:15;11.50;;;6.23;;
44143;SDS011;43510;51.920;4.492;2022-09-12T08:28:42;11.48;;;6.13;;
44143;SDS011;43510;51.920;4.492;2022-09-12T08:31:10;13.23;;;6.22;;
44143;SDS011;43510;51.920;4.492;2022-09-12T08:33:37;12.68;;;6.50;;
44143;SDS011;43510;51.920;4.492;2022-09-12T08:38:34;11.35;;;6.15;;
44143;SDS011;43510;51.920;4.492;2022-09-12T08:41:02;8.90;;;5.03;;
44143;SDS011;43510;51.920;4.492;2022-09-12T08:46:22;11.32;;;5.53;;
44143;SDS011;43510;51.920;4.492;2022-09-12T08:48:58;10.63;;;5.35;;
44143;SDS011;43510;51.920;4.492;2022-09-12T08:51:26;10.60;;;4.93;;
44143;SDS011;43510;51.920;4.492;2022-09-12T08:53:55;9.43;;;4.78;;
44143;SDS011;43510;51.920;4.492;2022-09-12T08:56:22;9.80;;;4.57;;
44143;SDS011;43510;51.920;4.492;2022-09-12T08:58:51;7.18;;;4.18;;
44143;SDS011;43510;51.920;4.492;2022-09-12T09:01:23;12.27;;;5.28;;
44143;SDS011;43510;51.920;4.492;2022-09-12T09:03:56;8.38;;;4.38;;
44143;SDS011;43510;51.920;4.492;2022-09-12T09:09:41;8.55;;;4.38;;
44143;SDS011;43510;51.920;4.492;2022-09-12T09:17:38;8.55;;;4.43;;
44143;SDS011;43510;51.920;4.492;2022-09-12T09:28:34;8.32;;;3.92;;
44143;SDS011;43510;51.920;4.492;2022-09-12T09:31:14;10.43;;;4.07;;
44143;SDS011;43510;51.920;4.492;2022-09-12T09:33:41;8.65;;;4.72;;
44143;SDS011;43510;51.920;4.492;2022-09-12T09:41:51;7.63;;;3.25;;
44143;SDS011;43510;51.920;4.492;2022-09-12T09:44:34;6.05;;;2.47;;
44143;SDS011;43510;51.920;4.492;2022-09-12T09:47:01;3.85;;;1.75;;
44143;SDS011;43510;51.920;4.492;2022-09-12T09:49:27;4.32;;;1.98;;
44143;SDS011;43510;51.920;4.492;2022-09-12T09:51:55;6.28;;;2.00;;
44143;SDS011;43510;51.920;4.492;2022-09-12T09:54:24;6.38;;;2.30;;
44143;SDS011;43510;51.920;4.492;2022-09-12T09:56:54;5.25;;;2.30;;
44143;SDS011;43510;51.920;4.492;2022-09-12T09:59:27;5.93;;;1.90;;
44143;SDS011;43510;51.920;4.492;2022-09-12T10:04:23;4.45;;;2.05;;
44143;SDS011;43510;51.920;4.492;2022-09-12T10:06:54;5.65;;;2.00;;
44143;SDS011;43510;51.920;4.492;2022-09-12T10:09:29;4.78;;;1.88;;
44143;SDS011;43510;51.920;4.492;2022-09-12T10:11:59;5.47;;;2.30;;
44143;SDS011;43510;51.920;4.492;2022-09-12T10:14:43;5.15;;;2.42;;
44143;SDS011;43510;51.920;4.492;2022-09-12T10:17:21;8.18;;;3.03;;
44143;SDS011;43510;51.920;4.492;2022-09-12T10:19:54;4.68;;;2.35;;
44143;SDS011;43510;51.920;4.492;2022-09-12T10:22:21;5.93;;;2.60;;
44143;SDS011;43510;51.920;4.492;2022-09-12T10:24:49;6.60;;;2.33;;
44143;SDS011;43510;51.920;4.492;2022-09-12T10:27:25;6.57;;;2.72;;
44143;SDS011;43510;51.920;4.492;2022-09-12T10:30:14;6.10;;;2.35;;
44143;SDS011;43510;51.920;4.492;2022-09-12T10:32:45;6.75;;;2.50;;
44143;SDS011;43510;51.920;4.492;2022-09-12T10:40:34;7.03;;;2.67;;
44143;SDS011;43510;51.920;4.492;2022-09-12T10:43:02;5.78;;;2.47;;
44143;SDS011;43510;51.920;4.492;2022-09-12T10:45:57;4.70;;;2.40;;
44143;SDS011;43510;51.920;4.492;2022-09-12T10:48:27;5.25;;;2.35;;
44143;SDS011;43510;51.920;4.492;2022-09-12T10:50:55;6.35;;;2.58;;
44143;SDS011;43510;51.920;4.492;2022-09-12T10:53:25;7.38;;;2.78;;
44143;SDS011;43510;51.920;4.492;2022-09-12T11:04:18;7.90;;;2.97;;
44143;SDS011;43510;51.920;4.492;2022-09-12T11:15:53;7.15;;;3.22;;
44143;SDS011;43510;51.920;4.492;2022-09-12T11:18:42;6.40;;;3.13;;
44143;SDS011;43510;51.920;4.492;2022-09-12T11:24:14;5.13;;;2.28;;
44143;SDS011;43510;51.920;4.492;2022-09-12T11:35:24;5.25;;;2.00;;
44143;SDS011;43510;51.920;4.492;2022-09-12T11:45:50;5.78;;;2.20;;
44143;SDS011;43510;51.920;4.492;2022-09-12T11:48:25;5.00;;;2.55;;
44143;SDS011;43510;51.920;4.492;2022-09-12T11:51:06;5.95;;;2.67;;
44143;SDS011;43510;51.920;4.492;2022-09-12T11:53:56;4.82;;;2.40;;
44143;SDS011;43510;51.920;4.492;2022-09-12T11:56:26;7.10;;;1.98;;
44143;SDS011;43510;51.920;4.492;2022-09-12T11:58:53;6.03;;;2.53;;
44143;SDS011;43510;51.920;4.492;2022-09-12T12:01:44;5.40;;;2.20;;
44143;SDS011;43510;51.920;4.492;2022-09-12T12:04:14;5.32;;;2.42;;
44143;SDS011;43510;51.920;4.492;2022-09-12T12:06:46;4.07;;;1.92;;
44143;SDS011;43510;51.920;4.492;2022-09-12T12:09:25;4.88;;;2.20;;
44143;SDS011;43510;51.920;4.492;2022-09-12T12:11:52;5.28;;;2.22;;
44143;SDS011;43510;51.920;4.492;2022-09-12T12:14:22;5.82;;;3.13;;
44143;SDS011;43510;51.920;4.492;2022-09-12T12:16:53;5.03;;;2.65;;
44143;SDS011;43510;51.920;4.492;2022-09-12T12:19:35;5.57;;;2.47;;
44143;SDS011;43510;51.920;4.492;2022-09-12T12:22:05;7.68;;;3.70;;
44143;SDS011;43510;51.920;4.492;2022-09-12T12:33:14;5.78;;;2.67;;
44143;SDS011;43510;51.920;4.492;2022-09-12T12:38:32;6.32;;;2.42;;
44143;SDS011;43510;51.920;4.492;2022-09-12T12:43:44;7.30;;;2.30;;
44143;SDS011;43510;51.920;4.492;2022-09-12T12:46:12;6.10;;;2.80;;
44143;SDS011;43510;51.920;4.492;2022-09-12T12:48:43;6.60;;;3.25;;
44143;SDS011;43510;51.920;4.492;2022-09-12T12:51:33;10.38;;;2.75;;
44143;SDS011;43510;51.920;4.492;2022-09-12T12:54:00;7.97;;;3.45;;
44143;SDS011;43510;51.920;4.492;2022-09-12T12:56:36;5.63;;;2.70;;
44143;SDS011;43510;51.920;4.492;2022-09-12T12:59:11;6.75;;;2.55;;
44143;SDS011;43510;51.920;4.492;2022-09-12T13:01:45;6.55;;;2.88;;
44143;SDS011;43510;51.920;4.492;2022-09-12T13:04:14;7.40;;;2.83;;
44143;SDS011;43510;51.920;4.492;2022-09-12T13:06:46;5.68;;;2.70;;
44143;SDS011;43510;51.920;4.492;2022-09-12T13:09:24;8.30;;;2.55;;
44143;SDS011;43510;51.920;4.492;2022-09-12T13:11:56;7.68;;;2.65;;
44143;SDS011;43510;51.920;4.492;2022-09-12T13:17:05;4.75;;;2.30;;
44143;SDS011;43510;51.920;4.492;2022-09-12T13:19:38;5.38;;;2.40;;
44143;SDS011;43510;51.920;4.492;2022-09-12T13:22:06;7.50;;;2.65;;
44143;SDS011;43510;51.920;4.492;2022-09-12T13:24:33;7.75;;;2.78;;
44143;SDS011;43510;51.920;4.492;2022-09-12T13:27:19;7.30;;;2.47;;
44143;SDS011;43510;51.920;4.492;2022-09-12T13:29:46;5.13;;;2.20;;
44143;SDS011;43510;51.920;4.492;2022-09-12T13:32:12;7.90;;;2.42;;
44143;SDS011;43510;51.920;4.492;2022-09-12T13:37:39;6.18;;;2.25;;
44143;SDS011;43510;51.920;4.492;2022-09-12T13:45:39;4.60;;;2.15;;
44143;SDS011;43510;51.920;4.492;2022-09-12T13:48:09;6.07;;;1.80;;
44143;SDS011;43510;51.920;4.492;2022-09-12T13:50:51;6.68;;;2.25;;
44143;SDS011;43510;51.920;4.492;2022-09-12T13:53:18;4.40;;;1.73;;
44143;SDS011;43510;51.920;4.492;2022-09-12T13:55:57;5.53;;;1.73;;
44143;SDS011;43510;51.920;4.492;2022-09-12T13:58:26;5.05;;;1.90;;
44143;SDS011;43510;51.920;4.492;2022-09-12T14:01:09;4.68;;;2.15;;
44143;SDS011;43510;51.920;4.492;2022-09-12T14:06:25;4.38;;;1.50;;
44143;SDS011;43510;51.920;4.492;2022-09-12T14:08:51;4.43;;;1.73;;
44143;SDS011;43510;51.920;4.492;2022-09-12T14:11:27;4.80;;;2.10;;
44143;SDS011;43510;51.920;4.492;2022-09-12T14:13:55;5.85;;;2.25;;
44143;SDS011;43510;51.920;4.492;2022-09-12T14:16:23;5.13;;;1.55;;
44143;SDS011;43510;51.920;4.492;2022-09-12T14:23:54;3.83;;;1.60;;
44143;SDS011;43510;51.920;4.492;2022-09-12T14:26:21;4.72;;;1.85;;
44143;SDS011;43510;51.920;4.492;2022-09-12T14:28:48;4.55;;;1.50;;
44143;SDS011;43510;51.920;4.492;2022-09-12T14:33:48;6.18;;;1.65;;
44143;SDS011;43510;51.920;4.492;2022-09-12T14:36:32;3.05;;;1.48;;
44143;SDS011;43510;51.920;4.492;2022-09-12T14:42:00;3.50;;;1.67;;
44143;SDS011;43510;51.920;4.492;2022-09-12T14:44:28;5.10;;;1.80;;
44143;SDS011;43510;51.920;4.492;2022-09-12T14:46:55;6.70;;;1.92;;
44143;SDS011;43510;51.920;4.492;2022-09-12T14:49:34;5.43;;;1.75;;
44143;SDS011;43510;51.920;4.492;2022-09-12T14:52:02;4.63;;;1.70;;
44143;SDS011;43510;51.920;4.492;2022-09-12T15:00:04;4.10;;;1.80;;
44143;SDS011;43510;51.920;4.492;2022-09-12T15:02:50;4.50;;;1.85;;
44143;SDS011;43510;51.920;4.492;2022-09-12T15:05:17;4.28;;;1.88;;
44143;SDS011;43510;51.920;4.492;2022-09-12T15:07:59;5.03;;;2.10;;
44143;SDS011;43510;51.920;4.492;2022-09-12T15:10:26;7.93;;;1.75;;
44143;SDS011;43510;51.920;4.492;2022-09-12T15:15:35;4.55;;;2.08;;
44143;SDS011;43510;51.920;4.492;2022-09-12T15:18:01;5.93;;;2.22;;
44143;SDS011;43510;51.920;4.492;2022-09-12T15:20:29;8.85;;;2.30;;
44143;SDS011;43510;51.920;4.492;2022-09-12T15:22:55;6.90;;;2.10;;
44143;SDS011;43510;51.920;4.492;2022-09-12T15:25:21;6.03;;;1.80;;
44143;SDS011;43510;51.920;4.492;2022-09-12T15:27:48;6.30;;;1.77;;
44143;SDS011;43510;51.920;4.492;2022-09-12T15:30:16;6.45;;;1.83;;
44143;SDS011;43510;51.920;4.492;2022-09-12T15:32:41;6.63;;;2.00;;
44143;SDS011;43510;51.920;4.492;2022-09-12T15:35:18;5.07;;;2.05;;
44143;SDS011;43510;51.920;4.492;2022-09-12T15:37:47;4.28;;;1.70;;
44143;SDS011;43510;51.920;4.492;2022-09-12T15:40:13;3.70;;;1.77;;
44143;SDS011;43510;51.920;4.492;2022-09-12T15:42:39;6.70;;;2.35;;
44143;SDS011;43510;51.920;4.492;2022-09-12T15:45:14;6.60;;;1.90;;
44143;SDS011;43510;51.920;4.492;2022-09-12T15:47:46;8.75;;;3.30;;
44143;SDS011;43510;51.920;4.492;2022-09-12T15:50:12;5.38;;;2.25;;
44143;SDS011;43510;51.920;4.492;2022-09-12T15:52:38;6.22;;;2.40;;
44143;SDS011;43510;51.920;4.492;2022-09-12T15:55:04;4.53;;;1.90;;
44143;SDS011;43510;51.920;4.492;2022-09-12T15:57:38;3.72;;;1.55;;
44143;SDS011;43510;51.920;4.492;2022-09-12T16:00:07;5.38;;;2.47;;
44143;SDS011;43510;51.920;4.492;2022-09-12T16:02:33;6.28;;;2.10;;
44143;SDS011;43510;51.920;4.492;2022-09-12T16:04:58;12.77;;;3.17;;
44143;SDS011;43510;51.920;4.492;2022-09-12T16:07:24;5.53;;;2.40;;
44143;SDS011;43510;51.920;4.492;2022-09-12T16:09:49;5.20;;;2.28;;
44143;SDS011;43510;51.920;4.492;2022-09-12T16:12:15;5.88;;;2.13;;
44143;SDS011;43510;51.920;4.492;2022-09-12T16:14:44;6.18;;;2.40;;
44143;SDS011;43510;51.920;4.492;2022-09-12T16:17:09;8.15;;;2.28;;
44143;SDS011;43510;51.920;4.492;2022-09-12T16:19:35;6.18;;;2.05;;
44143;SDS011;43510;51.920;4.492;2022-09-12T16:22:02;7.57;;;2.50;;
44143;SDS011;43510;51.920;4.492;2022-09-12T16:24:27;5.03;;;2.05;;
44143;SDS011;43510;51.920;4.492;2022-09-12T16:26:53;4.97;;;2.03;;
44143;SDS011;43510;51.920;4.492;2022-09-12T16:29:18;6.18;;;1.75;;
44143;SDS011;43510;51.920;4.492;2022-09-12T16:31:44;4.38;;;1.58;;
44143;SDS011;43510;51.920;4.492;2022-09-12T16:34:09;5.70;;;1.90;;
44143;SDS011;43510;51.920;4.492;2022-09-12T16:36:35;8.60;;;2.20;;
44143;SDS011;43510;51.920;4.492;2022-09-12T16:39:00;6.05;;;2.10;;
44143;SDS011;43510;51.920;4.492;2022-09-12T16:41:26;5.05;;;2.25;;
44143;SDS011;43510;51.920;4.492;2022-09-12T16:43:52;7.93;;;2.20;;
44143;SDS011;43510;51.920;4.492;2022-09-12T16:46:19;7.32;;;2.03;;
44143;SDS011;43510;51.920;4.492;2022-09-12T16:48:48;5.55;;;2.20;;
44143;SDS011;43510;51.920;4.492;2022-09-12T16:51:15;4.85;;;1.80;;
44143;SDS011;43510;51.920;4.492;2022-09-12T16:53:44;5.70;;;2.50;;
44143;SDS011;43510;51.920;4.492;2022-09-12T16:56:10;8.23;;;2.30;;
44143;SDS011;43510;51.920;4.492;2022-09-12T16:58:36;5.28;;;1.98;;
44143;SDS011;43510;51.920;4.492;2022-09-12T17:01:05;4.10;;;2.05;;
44143;SDS011;43510;51.920;4.492;2022-09-12T17:03:33;4.85;;;2.20;;
44143;SDS011;43510;51.920;4.492;2022-09-12T17:06:05;6.10;;;1.90;;
44143;SDS011;43510;51.920;4.492;2022-09-12T17:08:42;5.60;;;2.33;;
44143;SDS011;43510;51.920;4.492;2022-09-12T17:11:10;8.48;;;2.28;;
44143;SDS011;43510;51.920;4.492;2022-09-12T17:13:38;4.60;;;1.60;;
44143;SDS011;43510;51.920;4.492;2022-09-12T17:16:07;5.55;;;1.90;;
44143;SDS011;43510;51.920;4.492;2022-09-12T17:18:35;6.38;;;1.92;;
44143;SDS011;43510;51.920;4.492;2022-09-12T17:21:01;8.15;;;2.50;;
44143;SDS011;43510;51.920;4.492;2022-09-12T17:23:29;4.53;;;2.17;;
44143;SDS011;43510;51.920;4.492;2022-09-12T17:25:55;5.05;;;2.33;;
44143;SDS011;43510;51.920;4.492;2022-09-12T17:28:20;12.23;;;3.35;;
44143;SDS011;43510;51.920;4.492;2022-09-12T17:30:53;5.53;;;2.55;;